Time;durP1;ratioP1;P1;durP2;ratioP2;P2;SDS_P1;SDS_P2;PMS_P1;PMS_P2;Temp;Humidity;BMP_temperature;BMP_pressure;BME280_temperature;BME280_humidity;BME280_pressure;Samples;Min_cycle;Max_cycle;Signal;HPM_P1;HPM_P2
2023/10/26 00:00:13;;;;;;;;;;;20.10;66.50;;;;;;7393960;19;1621;-62
2023/10/26 00:02:38;;;;;;;;;;;20.10;66.50;;;;;;7391572;19;1744;-62
2023/10/26 00:05:04;;;;;;;;;;;20.00;66.50;;;;;;7395030;19;1720;-62
2023/10/26 00:07:30;;;;;;;;;;;20.10;66.60;;;;;;7391922;19;3014;-63
2023/10/26 00:09:55;;;;;;;;;;;20.10;66.50;;;;;;7393940;19;1861;-62
2023/10/26 00:12:20;;;;;;;;;;;20.00;66.40;;;;;;7393150;19;3024;-63
2023/10/26 00:14:46;;;;;;;;;;;20.00;66.40;;;;;;7396605;19;3477;-62
2023/10/26 00:17:11;;;;;;;;;;;20.00;66.40;;;;;;7394647;19;1678;-62
2023/10/26 00:19:37;;;;;;;;;;;20.00;66.50;;;;;;7393431;19;3080;-62
2023/10/26 00:22:02;;;;;;;;;;;20.00;66.40;;;;;;7393007;19;1810;-63
2023/10/26 00:24:28;;;;;;;;;;;20.00;66.50;;;;;;7391378;19;817;-62
2023/10/26 00:26:53;;;;;;;;;;;19.90;66.30;;;;;;7392874;19;3781;-63
2023/10/26 00:29:19;;;;;;;;;;;20.00;66.40;;;;;;7393149;19;1678;-62
2023/10/26 00:31:44;;;;;;;;;;;20.00;66.50;;;;;;7393379;19;1976;-62
2023/10/26 00:34:09;;;;;;;;;;;20.00;66.50;;;;;;7393268;19;1665;-63
2023/10/26 00:36:35;;;;;;;;;;;19.90;66.30;;;;;;7389460;19;3212;-63
2023/10/26 00:39:00;;;;;;;;;;;19.90;66.40;;;;;;7393975;19;1773;-62
2023/10/26 00:41:26;;;;;;;;;;;19.90;66.40;;;;;;7389489;19;3830;-62
2023/10/26 00:43:51;;;;;;;;;;;19.90;66.40;;;;;;7391430;19;1734;-62
2023/10/26 00:46:17;;;;;;;;;;;19.90;66.40;;;;;;7394058;19;1707;-62
2023/10/26 00:48:42;;;;;;;;;;;19.90;66.30;;;;;;7392398;19;1754;-62
2023/10/26 00:51:08;;;;;;;;;;;19.90;66.40;;;;;;7389307;19;2992;-62
2023/10/26 00:53:33;;;;;;;;;;;19.90;66.30;;;;;;7394967;19;1903;-62
2023/10/26 00:55:58;;;;;;;;;;;19.90;66.30;;;;;;7393633;19;1563;-62
2023/10/26 00:58:26;;;;;;;;;;;19.90;66.30;;;;;;7392809;19;2935;-61
2023/10/26 01:00:51;;;;;;;;;;;19.90;66.40;;;;;;7393455;19;1750;-62
2023/10/26 01:03:17;;;;;;;;;;;19.80;66.30;;;;;;7389306;19;3080;-62
2023/10/26 01:05:42;;;;;;;;;;;19.80;66.50;;;;;;7393227;19;1783;-61
2023/10/26 01:08:08;;;;;;;;;;;19.80;66.20;;;;;;7402651;19;1857;-64
2023/10/26 01:10:34;;;;;;;;;;;19.80;66.20;;;;;;7396794;19;1841;-61
2023/10/26 01:12:59;;;;;;;;;;;19.80;66.20;;;;;;7396592;19;3909;-61
2023/10/26 01:15:25;;;;;;;;;;;19.80;66.20;;;;;;7398833;19;3386;-61
2023/10/26 01:17:50;;;;;;;;;;;19.80;66.20;;;;;;7398975;19;1634;-61
2023/10/26 01:20:16;;;;;;;;;;;19.80;66.30;;;;;;7396253;19;4575;-61
2023/10/26 01:22:41;;;;;;;;;;;19.80;66.20;;;;;;7398990;19;1896;-61
2023/10/26 01:25:07;;;;;;;;;;;19.80;66.20;;;;;;7396847;19;5412;-61
2023/10/26 01:27:33;;;;;;;;;;;19.80;66.20;;;;;;7398128;19;1690;-61
2023/10/26 01:29:58;;;;;;;;;;;19.90;66.30;;;;;;7396254;19;1841;-61
2023/10/26 01:32:26;;;;;;;;;;;19.90;65.90;;;;;;7396444;19;4843;-61
2023/10/26 01:34:51;;;;;;;;;;;20.00;65.50;;;;;;7400947;19;1976;-61
2023/10/26 01:37:17;;;;;;;;;;;20.10;65.20;;;;;;7398720;19;1791;-61
2023/10/26 01:39:42;;;;;;;;;;;20.20;65.00;;;;;;7396797;19;4561;-62
2023/10/26 01:42:09;;;;;;;;;;;20.30;64.90;;;;;;7396243;19;1694;-61
2023/10/26 01:44:35;;;;;;;;;;;20.30;64.50;;;;;;7397209;19;816;-65
2023/10/26 01:47:01;;;;;;;;;;;20.40;64.30;;;;;;7397832;19;1723;-64
2023/10/26 01:49:26;;;;;;;;;;;20.50;64.20;;;;;;7396117;19;3136;-61
2023/10/26 01:51:52;;;;;;;;;;;20.50;64.00;;;;;;7391380;19;4503;-61
2023/10/26 01:54:17;;;;;;;;;;;20.50;63.90;;;;;;7393393;19;1147;-64
2023/10/26 01:56:43;;;;;;;;;;;20.50;63.80;;;;;;7399818;19;1561;-65
2023/10/26 01:59:09;;;;;;;;;;;20.50;63.80;;;;;;7399531;19;1791;-64
2023/10/26 02:01:34;;;;;;;;;;;20.50;64.00;;;;;;7396580;19;4649;-64
2023/10/26 02:03:59;;;;;;;;;;;20.50;64.00;;;;;;7399456;19;1653;-64
2023/10/26 02:06:25;;;;;;;;;;;20.50;64.10;;;;;;7396931;19;1594;-62
2023/10/26 02:08:50;;;;;;;;;;;20.50;64.10;;;;;;7397227;19;4611;-61
2023/10/26 02:11:16;;;;;;;;;;;20.50;64.10;;;;;;7396948;19;1853;-61
2023/10/26 02:13:41;;;;;;;;;;;20.50;63.90;;;;;;7397667;19;1840;-61
2023/10/26 02:16:07;;;;;;;;;;;20.50;63.70;;;;;;7397589;19;1703;-61
2023/10/26 02:18:32;;;;;;;;;;;20.50;63.80;;;;;;7393372;19;3779;-65
2023/10/26 02:20:59;;;;;;;;;;;20.40;63.70;;;;;;7396923;19;1598;-64
2023/10/26 02:23:25;;;;;;;;;;;20.40;63.90;;;;;;7398388;19;4373;-61
2023/10/26 02:25:51;;;;;;;;;;;20.30;64.10;;;;;;7398973;19;1772;-61
2023/10/26 02:28:16;;;;;;;;;;;20.30;64.00;;;;;;7396883;19;1891;-64
2023/10/26 02:30:45;;;;;;;;;;;20.30;64.10;;;;;;7395678;19;1841;-64
2023/10/26 02:33:10;;;;;;;;;;;20.30;64.00;;;;;;7396737;19;1794;-64
2023/10/26 02:35:37;;;;;;;;;;;20.30;64.20;;;;;;7396484;19;1498;-64
2023/10/26 02:38:03;;;;;;;;;;;20.30;64.30;;;;;;7394126;19;1313;-61
2023/10/26 02:40:28;;;;;;;;;;;20.20;65.00;;;;;;7395374;19;4817;-61
2023/10/26 02:42:54;;;;;;;;;;;20.20;64.50;;;;;;7394475;19;1824;-61
2023/10/26 02:45:19;;;;;;;;;;;20.20;64.50;;;;;;7393867;19;1073;-64
2023/10/26 02:47:45;;;;;;;;;;;20.20;64.50;;;;;;7397508;19;1791;-61
2023/10/26 02:50:10;;;;;;;;;;;20.20;64.50;;;;;;7393595;19;1823;-61
2023/10/26 02:52:37;;;;;;;;;;;20.20;64.50;;;;;;7394581;19;4618;-61
2023/10/26 02:55:03;;;;;;;;;;;20.20;64.30;;;;;;7395823;19;906;-64
2023/10/26 02:57:29;;;;;;;;;;;20.20;64.40;;;;;;7394499;19;1789;-61
2023/10/26 02:59:54;;;;;;;;;;;20.20;64.40;;;;;;7393847;19;4356;-61
2023/10/26 03:02:20;;;;;;;;;;;20.20;64.60;;;;;;7397373;19;3370;-61
2023/10/26 03:04:45;;;;;;;;;;;20.20;64.60;;;;;;7393416;19;888;-61
2023/10/26 03:07:11;;;;;;;;;;;20.20;64.60;;;;;;7392210;19;887;-61
2023/10/26 03:09:36;;;;;;;;;;;20.10;64.50;;;;;;7395071;19;1383;-62
2023/10/26 03:12:02;;;;;;;;;;;20.10;64.70;;;;;;7393575;19;1894;-61
2023/10/26 03:14:28;;;;;;;;;;;20.10;64.70;;;;;;7393683;19;843;-61
2023/10/26 03:16:53;;;;;;;;;;;20.10;64.80;;;;;;7395431;19;1627;-62
2023/10/26 03:19:19;;;;;;;;;;;20.10;64.70;;;;;;7391309;19;5086;-62
2023/10/26 03:21:44;;;;;;;;;;;20.10;64.80;;;;;;7389442;19;3769;-62
2023/10/26 03:24:10;;;;;;;;;;;20.00;64.80;;;;;;7393275;19;835;-61
2023/10/26 03:26:36;;;;;;;;;;;20.00;64.80;;;;;;7393956;19;3930;-61
2023/10/26 03:29:02;;;;;;;;;;;20.00;64.80;;;;;;7392483;19;2929;-62
2023/10/26 03:31:27;;;;;;;;;;;20.00;64.90;;;;;;7392687;19;1845;-61
2023/10/26 03:33:53;;;;;;;;;;;20.00;64.80;;;;;;7395038;19;3929;-64
2023/10/26 03:36:19;;;;;;;;;;;20.00;64.90;;;;;;7394848;19;3322;-64
2023/10/26 03:38:44;;;;;;;;;;;20.00;65.00;;;;;;7394152;19;1702;-61
2023/10/26 03:41:10;;;;;;;;;;;20.00;64.90;;;;;;7395414;19;1784;-64
2023/10/26 03:43:35;;;;;;;;;;;20.00;65.00;;;;;;7390943;19;4344;-62
2023/10/26 03:46:01;;;;;;;;;;;20.00;64.90;;;;;;7392425;19;3306;-61
2023/10/26 03:48:26;;;;;;;;;;;20.00;64.80;;;;;;7394182;19;4060;-62
2023/10/26 03:50:52;;;;;;;;;;;20.00;65.00;;;;;;7386463;19;4517;-61
2023/10/26 03:53:17;;;;;;;;;;;20.00;64.90;;;;;;7393403;19;3382;-62
2023/10/26 03:55:43;;;;;;;;;;;20.00;64.90;;;;;;7391892;19;5198;-62
2023/10/26 03:58:08;;;;;;;;;;;20.00;64.90;;;;;;7396327;19;3185;-62
2023/10/26 04:00:33;;;;;;;;;;;20.10;64.90;;;;;;7392544;19;1703;-62
2023/10/26 04:02:59;;;;;;;;;;;20.10;64.80;;;;;;7389435;19;3205;-62
2023/10/26 04:05:24;;;;;;;;;;;20.10;64.70;;;;;;7393041;19;1761;-62
2023/10/26 04:07:50;;;;;;;;;;;20.10;64.70;;;;;;7395180;19;1798;-62
2023/10/26 04:10:16;;;;;;;;;;;20.10;64.70;;;;;;7394754;19;1858;-62
2023/10/26 04:12:41;;;;;;;;;;;20.10;64.70;;;;;;7390214;19;2886;-62
2023/10/26 04:15:07;;;;;;;;;;;20.00;64.70;;;;;;7394214;19;1849;-62
2023/10/26 04:17:32;;;;;;;;;;;20.00;64.80;;;;;;7392718;19;1798;-62
2023/10/26 04:19:59;;;;;;;;;;;20.00;64.70;;;;;;7395000;19;1875;-62
2023/10/26 04:22:25;;;;;;;;;;;20.00;65.10;;;;;;7387939;19;3574;-62
2023/10/26 04:24:51;;;;;;;;;;;20.00;64.80;;;;;;7390450;19;3923;-63
2023/10/26 04:27:16;;;;;;;;;;;20.00;64.90;;;;;;7394286;19;2672;-62
2023/10/26 04:29:42;;;;;;;;;;;19.90;64.80;;;;;;7393023;19;1658;-62
2023/10/26 04:32:08;;;;;;;;;;;20.00;64.90;;;;;;7392782;19;1860;-62
2023/10/26 04:34:33;;;;;;;;;;;20.00;64.90;;;;;;7391432;19;4249;-63
2023/10/26 04:36:58;;;;;;;;;;;19.90;64.80;;;;;;7393303;19;1782;-62
2023/10/26 04:39:24;;;;;;;;;;;20.00;64.80;;;;;;7390432;19;4668;-62
2023/10/26 04:41:50;;;;;;;;;;;20.00;64.80;;;;;;7401392;19;3464;-62
2023/10/26 04:44:17;;;;;;;;;;;20.00;64.60;;;;;;7399428;19;1726;-62
2023/10/26 04:46:42;;;;;;;;;;;20.00;64.60;;;;;;7396259;19;4632;-63
2023/10/26 04:49:08;;;;;;;;;;;20.00;64.60;;;;;;7399997;19;4327;-62
2023/10/26 04:51:33;;;;;;;;;;;20.00;64.60;;;;;;7394761;19;1877;-62
2023/10/26 04:53:59;;;;;;;;;;;20.00;64.60;;;;;;7399841;19;1802;-62
2023/10/26 04:56:24;;;;;;;;;;;20.00;64.60;;;;;;7399387;19;6322;-62
2023/10/26 04:58:49;;;;;;;;;;;20.00;64.60;;;;;;7399664;19;1833;-62
2023/10/26 05:01:15;;;;;;;;;;;20.00;64.60;;;;;;7397890;19;5414;-62
2023/10/26 05:03:40;;;;;;;;;;;20.00;64.70;;;;;;7399080;19;1015;-62
2023/10/26 05:06:06;;;;;;;;;;;19.90;64.50;;;;;;7398091;19;975;-62
2023/10/26 05:08:31;;;;;;;;;;;20.00;64.60;;;;;;7397784;19;1807;-62
2023/10/26 05:10:57;;;;;;;;;;;20.00;64.70;;;;;;7396507;19;4695;-62
2023/10/26 05:13:24;;;;;;;;;;;20.00;64.70;;;;;;7399344;19;1670;-62
2023/10/26 05:15:49;;;;;;;;;;;20.00;64.70;;;;;;7395386;19;3474;-62
2023/10/26 05:18:14;;;;;;;;;;;19.90;64.90;;;;;;7400230;19;1722;-62
2023/10/26 05:20:40;;;;;;;;;;;19.90;64.60;;;;;;7389898;19;3527;-63
2023/10/26 05:23:06;;;;;;;;;;;19.90;64.70;;;;;;7395498;19;3831;-62
2023/10/26 05:25:32;;;;;;;;;;;19.90;64.90;;;;;;7400784;19;1883;-62
2023/10/26 05:27:59;;;;;;;;;;;20.00;64.80;;;;;;7397817;19;4484;-63
2023/10/26 05:30:25;;;;;;;;;;;19.90;64.60;;;;;;7396503;19;4417;-62
2023/10/26 05:32:50;;;;;;;;;;;19.90;64.70;;;;;;7393229;19;3857;-62
2023/10/26 05:35:18;;;;;;;;;;;19.90;64.60;;;;;;7398062;19;1670;-62
2023/10/26 05:37:43;;;;;;;;;;;20.00;64.60;;;;;;7394564;19;4041;-62
2023/10/26 05:40:09;;;;;;;;;;;20.00;64.60;;;;;;7397304;19;3714;-62
2023/10/26 05:42:35;;;;;;;;;;;19.90;64.50;;;;;;7398605;19;1672;-62
2023/10/26 05:45:00;;;;;;;;;;;20.00;64.60;;;;;;7397340;19;3838;-62
2023/10/26 05:47:26;;;;;;;;;;;20.00;64.60;;;;;;7397731;19;3255;-62
2023/10/26 05:49:51;;;;;;;;;;;20.00;64.30;;;;;;7399273;19;1710;-62
2023/10/26 05:52:17;;;;;;;;;;;20.00;64.30;;;;;;7385296;19;5141;-62
2023/10/26 05:54:42;;;;;;;;;;;20.00;64.30;;;;;;7395540;19;2919;-62
2023/10/26 05:57:07;;;;;;;;;;;20.00;64.60;;;;;;7395301;19;3816;-62
2023/10/26 05:59:33;;;;;;;;;;;20.00;64.50;;;;;;7393526;19;5904;-62
2023/10/26 06:01:59;;;;;;;;;;;20.00;64.50;;;;;;7392736;19;3873;-62
2023/10/26 06:04:25;;;;;;;;;;;20.00;64.60;;;;;;7393359;19;4326;-62
2023/10/26 06:06:50;;;;;;;;;;;20.00;64.60;;;;;;7393678;19;3593;-63
2023/10/26 06:09:16;;;;;;;;;;;20.00;64.60;;;;;;7398228;19;1885;-63
2023/10/26 06:11:41;;;;;;;;;;;20.00;64.50;;;;;;7397373;19;1845;-62
2023/10/26 06:14:06;;;;;;;;;;;20.00;64.60;;;;;;7396905;19;4143;-62
2023/10/26 06:16:32;;;;;;;;;;;20.00;64.60;;;;;;7396589;19;1636;-62
2023/10/26 06:18:57;;;;;;;;;;;20.00;64.50;;;;;;7399431;19;1740;-62
2023/10/26 06:21:23;;;;;;;;;;;20.00;64.60;;;;;;7394557;19;4343;-62
2023/10/26 06:23:48;;;;;;;;;;;20.00;64.90;;;;;;7396853;19;3288;-62
2023/10/26 06:26:14;;;;;;;;;;;19.90;64.70;;;;;;7399137;19;1738;-62
2023/10/26 06:28:39;;;;;;;;;;;19.90;64.80;;;;;;7396965;19;2042;-62
2023/10/26 06:31:11;;;;;;;;;;;19.90;64.80;;;;;;7396640;19;1822;-64
2023/10/26 06:33:37;;;;;;;;;;;20.00;64.80;;;;;;7389277;19;4490;-61
2023/10/26 06:36:02;;;;;;;;;;;20.00;65.00;;;;;;7389141;19;4438;-61
2023/10/26 06:38:28;;;;;;;;;;;20.10;65.20;;;;;;7387471;19;3848;-61
2023/10/26 06:40:54;;;;;;;;;;;20.50;64.50;;;;;;7391317;19;5957;-63
2023/10/26 06:43:20;;;;;;;;;;;20.90;63.00;;;;;;7392744;19;3979;-62
2023/10/26 06:45:45;;;;;;;;;;;21.40;62.00;;;;;;7393849;19;3387;-61
2023/10/26 06:48:11;;;;;;;;;;;22.00;60.10;;;;;;7394744;19;1610;-62
2023/10/26 06:50:37;;;;;;;;;;;22.50;58.70;;;;;;7394753;19;1854;-62
2023/10/26 06:53:02;;;;;;;;;;;22.80;57.60;;;;;;7395646;19;1890;-62
2023/10/26 06:55:32;;;;;;;;;;;23.10;57.40;;;;;;7395176;19;1896;-63
2023/10/26 06:57:57;;;;;;;;;;;23.10;57.30;;;;;;7390394;19;3833;-61
2023/10/26 07:00:22;;;;;;;;;;;23.00;57.50;;;;;;7391787;19;5099;-62
2023/10/26 07:02:48;;;;;;;;;;;23.20;57.70;;;;;;7393765;19;3452;-63
2023/10/26 07:05:13;;;;;;;;;;;23.50;57.40;;;;;;7391783;19;2503;-61
2023/10/26 07:07:39;;;;;;;;;;;23.70;57.70;;;;;;7390712;19;3525;-63
2023/10/26 07:10:04;;;;;;;;;;;23.90;56.80;;;;;;7394360;19;4006;-62
2023/10/26 07:12:30;;;;;;;;;;;24.10;56.60;;;;;;7396297;19;1851;-60
2023/10/26 07:14:56;;;;;;;;;;;24.10;56.50;;;;;;7394986;19;1782;-62
2023/10/26 07:17:23;;;;;;;;;;;24.20;56.40;;;;;;7392304;19;3749;-62
2023/10/26 07:19:52;;;;;;;;;;;24.20;56.30;;;;;;7389329;19;4734;-62
2023/10/26 07:22:17;;;;;;;;;;;24.00;56.80;;;;;;7391366;19;3981;-61
2023/10/26 07:24:43;;;;;;;;;;;23.90;57.00;;;;;;7393678;19;3624;-62
2023/10/26 07:27:08;;;;;;;;;;;23.80;57.30;;;;;;7392154;19;3537;-63
2023/10/26 07:29:34;;;;;;;;;;;23.70;57.50;;;;;;7393897;19;1584;-63
2023/10/26 07:31:59;;;;;;;;;;;23.70;57.90;;;;;;7392248;19;1846;-63
2023/10/26 07:34:27;;;;;;;;;;;23.50;57.90;;;;;;7389978;19;3747;-64
2023/10/26 07:36:53;;;;;;;;;;;23.40;58.20;;;;;;7392080;19;3556;-60
2023/10/26 07:39:18;;;;;;;;;;;23.20;58.50;;;;;;7392431;19;4511;-61
2023/10/26 07:41:44;;;;;;;;;;;23.20;58.90;;;;;;7394030;19;3791;-61
2023/10/26 07:44:09;;;;;;;;;;;23.10;59.20;;;;;;7393400;19;1746;-61
2023/10/26 07:46:35;;;;;;;;;;;23.00;59.50;;;;;;7390753;19;3435;-61
2023/10/26 07:49:00;;;;;;;;;;;22.80;59.60;;;;;;7395207;19;1744;-60
2023/10/26 07:51:26;;;;;;;;;;;22.80;60.00;;;;;;7392973;19;1850;-61
2023/10/26 07:53:51;;;;;;;;;;;22.70;60.30;;;;;;7388868;19;3036;-61
2023/10/26 07:56:16;;;;;;;;;;;22.60;60.40;;;;;;7390601;19;1965;-60
2023/10/26 07:58:42;;;;;;;;;;;22.60;60.60;;;;;;7392122;19;4629;-62
2023/10/26 08:01:08;;;;;;;;;;;22.60;60.70;;;;;;7392583;19;2912;-63
2023/10/26 08:03:34;;;;;;;;;;;22.60;60.80;;;;;;7389253;19;4726;-61
2023/10/26 08:06:00;;;;;;;;;;;22.60;60.70;;;;;;7389634;19;3934;-65
2023/10/26 08:08:26;;;;;;;;;;;22.70;60.50;;;;;;7392943;19;1641;-61
2023/10/26 08:10:51;;;;;;;;;;;22.90;60.00;;;;;;7391148;19;3410;-63
2023/10/26 08:13:17;;;;;;;;;;;23.10;59.60;;;;;;7396022;19;1669;-62
2023/10/26 08:15:43;;;;;;;;;;;23.20;59.30;;;;;;7397389;19;1655;-62
2023/10/26 08:18:08;;;;;;;;;;;23.30;59.20;;;;;;7399130;19;1607;-63
2023/10/26 08:20:33;;;;;;;;;;;23.40;58.90;;;;;;7398538;19;2209;-62
2023/10/26 08:22:59;;;;;;;;;;;23.40;58.70;;;;;;7401974;19;1755;-63
2023/10/26 08:25:25;;;;;;;;;;;23.40;59.10;;;;;;7396619;19;6116;-62
2023/10/26 08:27:50;;;;;;;;;;;23.40;59.10;;;;;;7400785;19;3311;-64
2023/10/26 08:30:16;;;;;;;;;;;23.30;59.20;;;;;;7396992;19;3618;-64
2023/10/26 08:32:41;;;;;;;;;;;23.20;59.60;;;;;;7398114;19;3911;-64
2023/10/26 08:35:07;;;;;;;;;;;23.10;59.70;;;;;;7400866;19;3963;-63
2023/10/26 08:37:32;;;;;;;;;;;23.10;60.00;;;;;;7396774;19;3905;-63
2023/10/26 08:39:58;;;;;;;;;;;23.00;60.10;;;;;;7398034;19;4745;-63
2023/10/26 08:42:23;;;;;;;;;;;22.90;60.50;;;;;;7400021;19;3552;-63
2023/10/26 08:44:49;;;;;;;;;;;22.80;61.00;;;;;;7399073;19;4268;-64
2023/10/26 08:47:17;;;;;;;;;;;22.70;61.10;;;;;;7400008;19;1682;-64
2023/10/26 08:49:43;;;;;;;;;;;22.60;61.40;;;;;;7394216;19;4382;-64
2023/10/26 08:52:09;;;;;;;;;;;22.50;61.50;;;;;;7391463;19;5077;-62
2023/10/26 08:54:34;;;;;;;;;;;22.50;61.70;;;;;;7402234;19;4374;-62
2023/10/26 08:57:07;;;;;;;;;;;22.60;61.70;;;;;;7397330;19;1656;-63
2023/10/26 08:59:33;;;;;;;;;;;22.70;61.40;;;;;;7399106;19;4582;-63
2023/10/26 09:01:58;;;;;;;;;;;22.90;60.90;;;;;;7399468;19;4606;-61
2023/10/26 09:04:24;;;;;;;;;;;23.10;60.30;;;;;;7397764;19;4494;-63
2023/10/26 09:06:51;;;;;;;;;;;23.30;59.80;;;;;;7392350;19;3744;-63
2023/10/26 09:09:16;;;;;;;;;;;23.40;59.60;;;;;;7400208;19;1908;-64
2023/10/26 09:11:42;;;;;;;;;;;23.50;59.40;;;;;;7397301;19;1850;-62
2023/10/26 09:14:14;;;;;;;;;;;23.40;59.40;;;;;;7396888;19;4328;-62
2023/10/26 09:16:46;;;;;;;;;;;23.50;59.40;;;;;;7396853;19;3641;-63
2023/10/26 09:19:15;;;;;;;;;;;23.40;59.40;;;;;;7394276;19;4970;-62
2023/10/26 09:21:53;;;;;;;;;;;23.30;59.60;;;;;;7399893;19;3294;-63
2023/10/26 09:24:24;;;;;;;;;;;23.30;60.50;;;;;;7391449;19;6244;-64
2023/10/26 09:26:50;;;;;;;;;;;23.30;60.00;;;;;;7391649;19;4371;-63
2023/10/26 09:29:16;;;;;;;;;;;23.20;60.00;;;;;;7394280;19;4037;-61
2023/10/26 09:31:54;;;;;;;;;;;23.10;60.20;;;;;;7391547;19;6996;-65
2023/10/26 09:34:21;;;;;;;;;;;23.10;60.70;;;;;;7398797;19;4787;-65
2023/10/26 09:37:00;;;;;;;;;;;23.10;60.70;;;;;;7394748;19;4751;-62
2023/10/26 09:39:27;;;;;;;;;;;23.00;60.70;;;;;;7396951;19;4488;-64
2023/10/26 09:41:52;;;;;;;;;;;23.00;61.10;;;;;;7393475;19;4521;-65
2023/10/26 09:44:18;;;;;;;;;;;22.90;61.00;;;;;;7381311;19;4563;-63
2023/10/26 09:46:43;;;;;;;;;;;23.00;61.20;;;;;;7389217;19;5562;-64
2023/10/26 09:49:09;;;;;;;;;;;23.00;61.20;;;;;;7390072;19;3236;-62
2023/10/26 09:51:34;;;;;;;;;;;23.00;61.10;;;;;;7391337;19;4798;-61
2023/10/26 09:53:59;;;;;;;;;;;23.10;61.10;;;;;;7385251;19;5003;-63
2023/10/26 09:56:26;;;;;;;;;;;23.10;60.90;;;;;;7392923;19;4360;-64
2023/10/26 09:58:51;;;;;;;;;;;23.20;60.80;;;;;;7397021;19;5000;-62
2023/10/26 10:01:31;;;;;;;;;;;23.30;60.60;;;;;;7391686;19;2950;-62
2023/10/26 10:03:56;;;;;;;;;;;23.40;60.60;;;;;;7399120;19;1688;-62
2023/10/26 10:06:41;;;;;;;;;;;23.40;60.20;;;;;;7388710;19;3645;-64
2023/10/26 10:09:06;;;;;;;;;;;23.40;60.10;;;;;;7396318;19;4489;-64
2023/10/26 10:11:32;;;;;;;;;;;23.40;60.30;;;;;;7390491;19;6577;-64
2023/10/26 10:13:57;;;;;;;;;;;23.40;60.50;;;;;;7392394;19;3473;-64
2023/10/26 10:16:35;;;;;;;;;;;23.40;60.30;;;;;;7388071;19;4523;-63
2023/10/26 10:19:19;;;;;;;;;;;23.40;60.60;;;;;;7391712;19;4513;-63
2023/10/26 10:21:44;;;;;;;;;;;23.30;60.80;;;;;;7389636;19;5135;-63
2023/10/26 10:24:10;;;;;;;;;;;23.20;61.10;;;;;;7383484;19;7997;-64
2023/10/26 10:26:54;;;;;;;;;;;23.20;61.30;;;;;;7388119;19;5593;-64
2023/10/26 10:29:21;;;;;;;;;;;23.10;61.40;;;;;;7389220;19;5066;-63
2023/10/26 10:31:46;;;;;;;;;;;23.10;61.60;;;;;;7394317;19;3436;-64
2023/10/26 10:34:12;;;;;;;;;;;23.00;61.60;;;;;;7388964;19;5645;-65
2023/10/26 10:36:56;;;;;;;;;;;23.10;61.80;;;;;;7391242;19;3829;-64
2023/10/26 10:39:22;;;;;;;;;;;23.00;61.60;;;;;;7393298;19;4952;-63
2023/10/26 10:41:48;;;;;;;;;;;23.10;61.60;;;;;;7392898;19;3241;-63
2023/10/26 10:44:14;;;;;;;;;;;23.10;61.70;;;;;;7394611;19;2399;-63
2023/10/26 10:46:39;;;;;;;;;;;23.10;61.90;;;;;;7395248;19;1651;-62
2023/10/26 10:49:05;;;;;;;;;;;23.10;61.50;;;;;;7395903;19;1784;-62
2023/10/26 10:51:32;;;;;;;;;;;23.10;61.50;;;;;;7394541;19;1854;-64
2023/10/26 10:53:57;;;;;;;;;;;23.10;61.80;;;;;;7396836;19;1663;-63
2023/10/26 10:56:23;;;;;;;;;;;23.10;61.70;;;;;;7396453;19;1921;-63
2023/10/26 10:58:50;;;;;;;;;;;23.20;61.60;;;;;;7395660;19;1571;-63
2023/10/26 11:01:20;;;;;;;;;;;23.30;61.60;;;;;;7394466;19;1758;-64
2023/10/26 11:03:46;;;;;;;;;;;23.30;61.30;;;;;;7394993;19;5212;-63
2023/10/26 11:06:13;;;;;;;;;;;23.40;61.10;;;;;;7389960;19;5053;-63
2023/10/26 11:08:38;;;;;;;;;;;23.50;61.00;;;;;;7390567;19;5727;-62
2023/10/26 11:11:04;;;;;;;;;;;23.50;61.00;;;;;;7390972;19;3643;-63
2023/10/26 11:13:29;;;;;;;;;;;23.50;60.80;;;;;;7390332;19;4835;-63
2023/10/26 11:15:54;;;;;;;;;;;23.50;60.90;;;;;;7390476;19;3673;-62
2023/10/26 11:18:20;;;;;;;;;;;23.40;60.70;;;;;;7387488;19;4173;-62
2023/10/26 11:20:46;;;;;;;;;;;23.40;61.10;;;;;;7389081;19;4271;-62
2023/10/26 11:23:12;;;;;;;;;;;23.30;61.20;;;;;;7393832;19;3651;-64
2023/10/26 11:25:37;;;;;;;;;;;23.30;61.60;;;;;;7393020;19;3472;-63
2023/10/26 11:28:03;;;;;;;;;;;23.20;61.60;;;;;;7392621;19;3733;-63
2023/10/26 11:30:47;;;;;;;;;;;23.20;61.70;;;;;;7388317;19;3382;-64
2023/10/26 11:33:48;;;;;;;;;;;23.20;61.90;;;;;;7389565;19;4730;-63
2023/10/26 11:36:14;;;;;;;;;;;23.10;62.00;;;;;;7385060;19;3844;-64
2023/10/26 11:38:47;;;;;;;;;;;23.10;62.10;;;;;;7390930;19;4921;-64
2023/10/26 11:41:18;;;;;;;;;;;23.10;62.10;;;;;;7385972;19;5524;-64
2023/10/26 11:43:44;;;;;;;;;;;23.20;61.90;;;;;;7393896;19;3198;-63
2023/10/26 11:46:09;;;;;;;;;;;23.20;62.00;;;;;;7386917;19;3602;-62
2023/10/26 11:48:35;;;;;;;;;;;23.20;61.70;;;;;;7386028;19;3916;-62
2023/10/26 11:51:02;;;;;;;;;;;23.30;61.60;;;;;;7388406;19;1854;-62
2023/10/26 11:53:28;;;;;;;;;;;23.40;61.50;;;;;;7391413;19;2771;-63
2023/10/26 11:55:53;;;;;;;;;;;23.40;61.30;;;;;;7388154;19;2794;-62
2023/10/26 11:58:19;;;;;;;;;;;23.40;61.30;;;;;;7394273;19;1601;-62
2023/10/26 12:00:44;;;;;;;;;;;23.40;61.20;;;;;;7386483;19;3183;-63
2023/10/26 12:03:09;;;;;;;;;;;23.50;61.20;;;;;;7383151;19;5874;-63
2023/10/26 12:05:35;;;;;;;;;;;23.40;61.10;;;;;;7389786;19;2785;-63
2023/10/26 12:08:01;;;;;;;;;;;23.40;61.30;;;;;;7389503;19;4607;-63
2023/10/26 12:10:26;;;;;;;;;;;23.50;61.50;;;;;;7393319;19;3418;-63
2023/10/26 12:12:52;;;;;;;;;;;23.40;61.30;;;;;;7390088;19;2735;-62
2023/10/26 12:15:18;;;;;;;;;;;23.40;61.50;;;;;;7378054;19;3033;-63
2023/10/26 12:17:43;;;;;;;;;;;23.40;61.40;;;;;;7390827;19;1739;-64
2023/10/26 12:20:09;;;;;;;;;;;23.40;61.50;;;;;;7389574;19;2553;-63
2023/10/26 12:22:35;;;;;;;;;;;23.40;61.50;;;;;;7391487;19;2403;-62
2023/10/26 12:25:04;;;;;;;;;;;23.40;61.50;;;;;;7393229;19;1478;-62
2023/10/26 12:27:30;;;;;;;;;;;23.40;61.50;;;;;;7391802;19;1745;-62
2023/10/26 12:29:55;;;;;;;;;;;23.40;61.60;;;;;;7387789;19;4674;-63
2023/10/26 12:32:21;;;;;;;;;;;23.30;61.80;;;;;;7389896;19;3227;-62
2023/10/26 12:34:47;;;;;;;;;;;23.20;61.80;;;;;;7388528;19;2391;-63
2023/10/26 12:37:12;;;;;;;;;;;23.20;61.90;;;;;;7389524;19;2515;-63
2023/10/26 12:39:38;;;;;;;;;;;23.10;62.00;;;;;;7390301;19;2494;-64
2023/10/26 12:42:03;;;;;;;;;;;23.00;62.60;;;;;;7392628;19;1920;-63
2023/10/26 12:44:29;;;;;;;;;;;23.00;62.70;;;;;;7395151;19;1721;-62
2023/10/26 12:46:54;;;;;;;;;;;23.00;62.90;;;;;;7388833;19;3666;-63
2023/10/26 12:49:23;;;;;;;;;;;23.00;62.90;;;;;;7393789;19;1568;-62
2023/10/26 12:51:49;;;;;;;;;;;23.00;62.50;;;;;;7389199;19;3923;-62
2023/10/26 12:54:14;;;;;;;;;;;23.10;62.50;;;;;;7389628;19;3321;-62
2023/10/26 12:56:40;;;;;;;;;;;23.10;62.40;;;;;;7391943;19;1472;-62
2023/10/26 12:59:05;;;;;;;;;;;23.20;62.20;;;;;;7377728;19;4029;-63
2023/10/26 13:01:30;;;;;;;;;;;23.20;62.00;;;;;;7387729;19;2755;-62
2023/10/26 13:03:56;;;;;;;;;;;23.20;61.90;;;;;;7391492;19;4171;-62
2023/10/26 13:06:21;;;;;;;;;;;23.30;61.90;;;;;;7395251;19;2996;-63
2023/10/26 13:08:47;;;;;;;;;;;23.40;61.50;;;;;;7396885;19;4348;-62
2023/10/26 13:11:12;;;;;;;;;;;23.50;61.30;;;;;;7397216;19;2503;-62
2023/10/26 13:13:38;;;;;;;;;;;23.50;61.40;;;;;;7396738;19;3531;-62
2023/10/26 13:16:08;;;;;;;;;;;23.50;61.10;;;;;;7397318;19;2822;-62
2023/10/26 13:18:33;;;;;;;;;;;23.50;61.00;;;;;;7398032;19;1701;-62
2023/10/26 13:20:59;;;;;;;;;;;23.50;61.00;;;;;;7393369;19;2771;-62
2023/10/26 13:23:24;;;;;;;;;;;23.50;61.20;;;;;;7400303;19;2092;-63
2023/10/26 13:25:50;;;;;;;;;;;23.40;61.20;;;;;;7396041;19;2954;-62
2023/10/26 13:28:15;;;;;;;;;;;23.40;61.30;;;;;;7395239;19;2815;-62
2023/10/26 13:30:41;;;;;;;;;;;23.40;61.50;;;;;;7399263;19;2436;-62
2023/10/26 13:33:06;;;;;;;;;;;23.30;61.30;;;;;;7398883;19;1633;-62
2023/10/26 13:35:31;;;;;;;;;;;23.20;61.70;;;;;;7392088;19;3347;-63
2023/10/26 13:37:57;;;;;;;;;;;23.10;61.80;;;;;;7392458;19;3063;-62
2023/10/26 13:40:22;;;;;;;;;;;23.10;61.90;;;;;;7397980;19;1609;-63
2023/10/26 13:42:49;;;;;;;;;;;23.10;62.10;;;;;;7393498;19;3702;-63
2023/10/26 13:45:15;;;;;;;;;;;23.10;62.20;;;;;;7395939;19;2998;-62
2023/10/26 13:47:40;;;;;;;;;;;23.10;62.50;;;;;;7399298;19;1557;-62
2023/10/26 13:50:06;;;;;;;;;;;23.00;62.40;;;;;;7397300;19;3004;-62
2023/10/26 13:52:31;;;;;;;;;;;23.00;62.50;;;;;;7394670;19;2137;-61
2023/10/26 13:54:57;;;;;;;;;;;23.00;62.30;;;;;;7394184;19;4359;-63
2023/10/26 13:57:22;;;;;;;;;;;23.00;62.30;;;;;;7395740;19;3489;-62
2023/10/26 13:59:48;;;;;;;;;;;23.10;62.10;;;;;;7394752;19;2862;-62
2023/10/26 14:02:13;;;;;;;;;;;23.10;62.20;;;;;;7394019;19;2824;-63
2023/10/26 14:04:38;;;;;;;;;;;23.10;62.00;;;;;;7395295;19;3144;-62
2023/10/26 14:07:04;;;;;;;;;;;23.10;62.10;;;;;;7396991;19;1999;-62
2023/10/26 14:09:33;;;;;;;;;;;23.10;62.10;;;;;;7394595;19;3006;-63
2023/10/26 14:12:01;;;;;;;;;;;23.10;61.90;;;;;;7391533;19;3396;-62
2023/10/26 14:14:30;;;;;;;;;;;23.10;61.90;;;;;;7397205;19;1769;-62
2023/10/26 14:16:55;;;;;;;;;;;23.10;61.90;;;;;;7398103;19;1897;-63
2023/10/26 14:19:21;;;;;;;;;;;23.10;62.10;;;;;;7392792;19;3016;-62
2023/10/26 14:21:46;;;;;;;;;;;23.00;62.00;;;;;;7398704;19;1703;-62
2023/10/26 14:24:11;;;;;;;;;;;23.00;62.20;;;;;;7397836;19;1880;-62